AAL2086 MNMG-KMIA
Flight info
| Callsign | AAL2086 |
|---|---|
| Flight time | 2h 2m |
| Altitude | 35000 |
| Route | NAGOR DCT SELEK/N0465F360 UL345 FUNKO/N0464F350 |
| Aircraft | B738/M-SDE2E3FGHIRWXY/LB1 |
Departure
| Time | 2026-05-04 14:58 |
|---|---|
| Airport | Augusto C. Sandino (Managua) International Airport (MNMG) |
Arrival
| Time | 2026-05-04 17:00 |
|---|---|
| Airport | Miami International Airport (KMIA) |
| Time | Latitude | Longitude | Altitude | Speed | Heading |
|---|---|---|---|---|---|
| 2026-05-04 14:29 | 12.14389 | -86.17008 | 199 ft | 0 kts | 6° |
| 2026-05-04 14:50 | 12.14374 | -86.17010 | 202 ft | 4 kts | 6° |
| 2026-05-04 14:51 | 12.14353 | -86.17012 | 199 ft | 1 kts | 6° |
| 2026-05-04 14:51 | 12.14349 | -86.17013 | 199 ft | 0 kts | 6° |
| 2026-05-04 14:54 | 12.14350 | -86.17013 | 199 ft | 0 kts | 0° |
| 2026-05-04 14:54 | 12.14352 | -86.17019 | 199 ft | 1 kts | 293° |
| 2026-05-04 14:54 | 12.14336 | -86.17051 | 199 ft | 10 kts | 247° |
| 2026-05-04 14:54 | 12.14331 | -86.17147 | 204 ft | 16 kts | 276° |
| 2026-05-04 14:55 | 12.14343 | -86.17255 | 205 ft | 15 kts | 276° |
| 2026-05-04 14:55 | 12.14354 | -86.17359 | 206 ft | 14 kts | 276° |
| 2026-05-04 14:55 | 12.14366 | -86.17459 | 209 ft | 14 kts | 278° |
| 2026-05-04 14:55 | 12.14377 | -86.17555 | 210 ft | 13 kts | 276° |
| 2026-05-04 14:56 | 12.14386 | -86.17647 | 210 ft | 13 kts | 276° |
| 2026-05-04 14:56 | 12.14396 | -86.17736 | 208 ft | 12 kts | 268° |
| 2026-05-04 14:56 | 12.14360 | -86.17815 | 205 ft | 12 kts | 236° |
| 2026-05-04 14:56 | 12.14315 | -86.17886 | 212 ft | 12 kts | 238° |
| 2026-05-04 14:57 | 12.14278 | -86.17896 | 207 ft | 6 kts | 103° |
| 2026-05-04 14:57 | 12.14269 | -86.17805 | 202 ft | 34 kts | 97° |
| 2026-05-04 14:57 | 12.14215 | -86.17318 | 199 ft | 103 kts | 96° |
| 2026-05-04 14:57 | 12.14110 | -86.16381 | 200 ft | 159 kts | 96° |
| 2026-05-04 14:58 | 12.13986 | -86.15148 | 551 ft | 181 kts | 94° |
| 2026-05-04 14:58 | 12.13879 | -86.13849 | 1288 ft | 186 kts | 93° |
| 2026-05-04 14:58 | 12.13768 | -86.12479 | 1748 ft | 207 kts | 94° |
| 2026-05-04 14:58 | 12.13637 | -86.10925 | 1976 ft | 232 kts | 94° |
| 2026-05-04 14:59 | 12.13490 | -86.09213 | 2253 ft | 255 kts | 93° |
| 2026-05-04 14:59 | 12.13619 | -86.07404 | 2901 ft | 257 kts | 68° |
| 2026-05-04 14:59 | 12.16186 | -86.05116 | 4588 ft | 259 kts | 15° |
| 2026-05-04 15:00 | 12.17996 | -86.04877 | 5284 ft | 263 kts | 15° |
| 2026-05-04 15:00 | 12.19660 | -86.04132 | 5933 ft | 263 kts | 33° |
| 2026-05-04 15:00 | 12.21258 | -86.03200 | 6700 ft | 265 kts | 32° |
| 2026-05-04 15:01 | 12.24550 | -86.01373 | 8000 ft | 274 kts | 32° |
| 2026-05-04 15:01 | 12.26238 | -86.00427 | 8644 ft | 278 kts | 33° |
| 2026-05-04 15:01 | 12.27904 | -85.99403 | 9310 ft | 280 kts | 35° |
| 2026-05-04 15:01 | 12.29565 | -85.98335 | 9911 ft | 284 kts | 35° |
| 2026-05-04 15:02 | 12.31235 | -85.97250 | 10318 ft | 296 kts | 35° |
| 2026-05-04 15:02 | 12.33037 | -85.96079 | 10461 ft | 317 kts | 35° |
| 2026-05-04 15:02 | 12.34952 | -85.94838 | 10608 ft | 335 kts | 34° |
| 2026-05-04 15:02 | 12.36970 | -85.93536 | 10742 ft | 351 kts | 34° |
| 2026-05-04 15:03 | 12.39078 | -85.92180 | 11011 ft | 362 kts | 34° |
| 2026-05-04 15:03 | 12.41222 | -85.90805 | 11492 ft | 366 kts | 34° |
| 2026-05-04 15:03 | 12.43385 | -85.89418 | 12006 ft | 368 kts | 34° |
| 2026-05-04 15:03 | 12.45564 | -85.88022 | 12548 ft | 370 kts | 34° |
| 2026-05-04 15:04 | 12.47758 | -85.86617 | 13057 ft | 374 kts | 34° |
| 2026-05-04 15:04 | 12.49981 | -85.85192 | 13555 ft | 377 kts | 33° |
| 2026-05-04 15:04 | 12.52214 | -85.83760 | 14049 ft | 380 kts | 33° |
| 2026-05-04 15:04 | 12.54465 | -85.82318 | 14544 ft | 384 kts | 33° |
| 2026-05-04 15:05 | 12.56711 | -85.80876 | 15021 ft | 388 kts | 33° |
| 2026-05-04 15:05 | 12.59007 | -85.79402 | 15543 ft | 391 kts | 33° |
| 2026-05-04 15:05 | 12.61326 | -85.77914 | 16050 ft | 394 kts | 32° |
| 2026-05-04 15:05 | 12.63657 | -85.76417 | 16516 ft | 397 kts | 32° |
| 2026-05-04 15:06 | 12.66015 | -85.74902 | 16981 ft | 401 kts | 32° |
| 2026-05-04 15:06 | 12.68387 | -85.73378 | 17440 ft | 404 kts | 32° |
| 2026-05-04 15:06 | 12.70778 | -85.71840 | 17895 ft | 407 kts | 32° |
| 2026-05-04 15:07 | 12.75605 | -85.68736 | 18730 ft | 414 kts | 32° |
| 2026-05-04 15:07 | 12.78059 | -85.67158 | 19115 ft | 417 kts | 32° |
| 2026-05-04 15:07 | 12.80522 | -85.65573 | 19526 ft | 420 kts | 32° |
| 2026-05-04 15:07 | 12.83006 | -85.63976 | 19912 ft | 422 kts | 32° |
| 2026-05-04 15:08 | 12.85502 | -85.62370 | 20272 ft | 425 kts | 32° |
| 2026-05-04 15:08 | 12.87985 | -85.60770 | 20628 ft | 428 kts | 32° |
| 2026-05-04 15:08 | 12.90523 | -85.59135 | 20982 ft | 430 kts | 32° |
| 2026-05-04 15:08 | 12.93064 | -85.57499 | 21322 ft | 433 kts | 32° |
| 2026-05-04 15:09 | 12.95673 | -85.55933 | 21657 ft | 435 kts | 26° |
| 2026-05-04 15:09 | 12.98440 | -85.54630 | 21991 ft | 437 kts | 22° |
| 2026-05-04 15:09 | 13.01264 | -85.53460 | 22302 ft | 439 kts | 21° |
| 2026-05-04 15:10 | 13.06964 | -85.51199 | 22898 ft | 443 kts | 21° |
| 2026-05-04 15:10 | 13.09845 | -85.50036 | 23189 ft | 445 kts | 21° |
| 2026-05-04 15:10 | 13.15620 | -85.47642 | 23737 ft | 449 kts | 21° |
| 2026-05-04 15:11 | 13.18518 | -85.46419 | 23984 ft | 451 kts | 21° |
| 2026-05-04 15:11 | 13.21422 | -85.45186 | 24236 ft | 453 kts | 22° |
| 2026-05-04 15:11 | 13.24339 | -85.43944 | 24482 ft | 454 kts | 22° |
| 2026-05-04 15:11 | 13.27266 | -85.42696 | 24741 ft | 456 kts | 21° |
| 2026-05-04 15:12 | 13.30203 | -85.41444 | 24993 ft | 457 kts | 21° |
| 2026-05-04 15:12 | 13.33147 | -85.40189 | 25238 ft | 459 kts | 22° |
| 2026-05-04 15:12 | 13.36063 | -85.38946 | 25519 ft | 459 kts | 22° |
| 2026-05-04 15:12 | 13.39011 | -85.37690 | 25817 ft | 459 kts | 21° |
| 2026-05-04 15:13 | 13.41969 | -85.36431 | 26010 ft | 461 kts | 21° |
| 2026-05-04 15:13 | 13.44938 | -85.35165 | 26183 ft | 464 kts | 21° |
| 2026-05-04 15:13 | 13.47931 | -85.33888 | 26357 ft | 466 kts | 22° |
| 2026-05-04 15:13 | 13.50932 | -85.32607 | 26553 ft | 468 kts | 22° |
| 2026-05-04 15:14 | 13.53943 | -85.31322 | 26761 ft | 469 kts | 22° |
| 2026-05-04 15:14 | 13.56959 | -85.30034 | 26972 ft | 470 kts | 21° |
| 2026-05-04 15:14 | 13.59993 | -85.28738 | 27162 ft | 472 kts | 21° |
| 2026-05-04 15:14 | 13.63033 | -85.27440 | 27328 ft | 474 kts | 21° |
| 2026-05-04 15:15 | 13.66085 | -85.26137 | 27507 ft | 475 kts | 21° |
| 2026-05-04 15:15 | 13.69141 | -85.24831 | 27705 ft | 476 kts | 21° |
| 2026-05-04 15:15 | 13.72207 | -85.23520 | 27899 ft | 477 kts | 21° |
| 2026-05-04 15:16 | 13.78319 | -85.20907 | 28217 ft | 481 kts | 21° |
| 2026-05-04 15:16 | 13.81413 | -85.19583 | 28364 ft | 482 kts | 21° |
| 2026-05-04 15:16 | 13.87625 | -85.16926 | 28699 ft | 484 kts | 21° |
| 2026-05-04 15:17 | 13.89692 | -85.16042 | 28839 ft | 484 kts | 21° |
| 2026-05-04 15:17 | 13.95909 | -85.13377 | 29345 ft | 483 kts | 21° |
| 2026-05-04 15:17 | 13.99012 | -85.12048 | 29548 ft | 483 kts | 21° |
| 2026-05-04 15:18 | 14.02116 | -85.10718 | 29764 ft | 483 kts | 21° |
| 2026-05-04 15:18 | 14.05229 | -85.09384 | 29987 ft | 483 kts | 21° |
| 2026-05-04 15:18 | 14.08336 | -85.08052 | 30199 ft | 484 kts | 21° |
| 2026-05-04 15:19 | 14.14538 | -85.05390 | 30725 ft | 482 kts | 21° |
| 2026-05-04 15:19 | 14.17644 | -85.04057 | 30968 ft | 482 kts | 21° |
| 2026-05-04 15:19 | 14.23796 | -85.01415 | 31407 ft | 482 kts | 21° |
| 2026-05-04 15:20 | 14.26886 | -85.00086 | 31662 ft | 481 kts | 21° |
| 2026-05-04 15:20 | 14.29977 | -84.98757 | 31937 ft | 480 kts | 21° |
| 2026-05-04 15:20 | 14.33059 | -84.97432 | 32177 ft | 480 kts | 21° |
| 2026-05-04 15:20 | 14.36138 | -84.96108 | 32409 ft | 480 kts | 21° |
| 2026-05-04 15:21 | 14.39222 | -84.94782 | 32651 ft | 480 kts | 21° |
| 2026-05-04 15:21 | 14.42303 | -84.93457 | 32917 ft | 479 kts | 21° |
| 2026-05-04 15:21 | 14.48439 | -84.90815 | 33423 ft | 478 kts | 21° |
| 2026-05-04 15:22 | 14.51506 | -84.89494 | 33656 ft | 478 kts | 21° |
| 2026-05-04 15:22 | 14.54573 | -84.88174 | 33950 ft | 477 kts | 21° |
| 2026-05-04 15:22 | 14.60686 | -84.85539 | 34439 ft | 476 kts | 21° |
| 2026-05-04 15:23 | 14.63739 | -84.84223 | 34672 ft | 475 kts | 21° |
| 2026-05-04 15:23 | 14.66793 | -84.82906 | 34906 ft | 475 kts | 21° |
| 2026-05-04 15:23 | 14.69845 | -84.81588 | 35027 ft | 476 kts | 21° |
| 2026-05-04 15:23 | 14.72913 | -84.80264 | 35020 ft | 478 kts | 21° |
| 2026-05-04 15:24 | 14.85075 | -84.75011 | 35030 ft | 472 kts | 21° |
| 2026-05-04 15:25 | 14.91120 | -84.72398 | 35030 ft | 470 kts | 21° |
| 2026-05-04 15:26 | 15.00170 | -84.68484 | 35013 ft | 469 kts | 21° |
| 2026-05-04 15:26 | 15.09179 | -84.64584 | 35012 ft | 470 kts | 21° |
| 2026-05-04 15:27 | 15.18249 | -84.60653 | 35015 ft | 472 kts | 21° |
| 2026-05-04 15:28 | 15.27360 | -84.56700 | 35008 ft | 474 kts | 21° |
| 2026-05-04 15:29 | 15.36498 | -84.52733 | 35007 ft | 476 kts | 21° |
| 2026-05-04 15:30 | 15.57831 | -84.43455 | 35005 ft | 476 kts | 20° |
| 2026-05-04 15:31 | 15.66984 | -84.39468 | 35005 ft | 475 kts | 20° |
| 2026-05-04 15:32 | 15.82152 | -84.32848 | 35009 ft | 472 kts | 20° |
| 2026-05-04 15:34 | 15.97219 | -84.26269 | 35005 ft | 470 kts | 20° |
| 2026-05-04 15:34 | 16.06256 | -84.22316 | 34998 ft | 470 kts | 20° |
| 2026-05-04 15:35 | 16.15323 | -84.18346 | 34998 ft | 471 kts | 20° |
| 2026-05-04 15:36 | 16.24392 | -84.14369 | 34986 ft | 471 kts | 20° |
| 2026-05-04 15:36 | 16.30437 | -84.11717 | 35003 ft | 472 kts | 20° |
| 2026-05-04 15:37 | 16.36490 | -84.09059 | 34996 ft | 472 kts | 20° |
| 2026-05-04 15:37 | 16.42546 | -84.06399 | 35007 ft | 472 kts | 20° |
| 2026-05-04 15:38 | 16.48608 | -84.03734 | 35003 ft | 473 kts | 20° |
| 2026-05-04 15:38 | 16.54632 | -84.01084 | 35003 ft | 473 kts | 20° |
| 2026-05-04 15:39 | 16.60699 | -83.98414 | 34993 ft | 474 kts | 20° |
| 2026-05-04 15:40 | 16.69824 | -83.94394 | 34997 ft | 474 kts | 20° |
| 2026-05-04 15:40 | 16.75914 | -83.91709 | 35002 ft | 475 kts | 20° |
| 2026-05-04 15:41 | 16.81972 | -83.89035 | 34999 ft | 476 kts | 20° |
| 2026-05-04 15:41 | 16.88079 | -83.86340 | 34995 ft | 476 kts | 20° |
| 2026-05-04 15:42 | 16.94191 | -83.83635 | 34997 ft | 477 kts | 20° |
| 2026-05-04 15:42 | 17.00319 | -83.80926 | 34998 ft | 477 kts | 20° |
| 2026-05-04 15:43 | 17.06400 | -83.78237 | 35004 ft | 478 kts | 20° |
| 2026-05-04 15:43 | 17.12525 | -83.75525 | 35001 ft | 478 kts | 20° |
| 2026-05-04 15:44 | 17.18668 | -83.72803 | 34997 ft | 479 kts | 20° |
| 2026-05-04 15:44 | 17.24813 | -83.70081 | 35004 ft | 480 kts | 20° |
| 2026-05-04 15:45 | 17.30973 | -83.67346 | 35000 ft | 481 kts | 20° |
| 2026-05-04 15:45 | 17.37140 | -83.64605 | 35013 ft | 482 kts | 20° |
| 2026-05-04 15:46 | 17.43282 | -83.61875 | 35011 ft | 482 kts | 20° |
| 2026-05-04 15:46 | 17.49466 | -83.59125 | 35008 ft | 483 kts | 20° |
| 2026-05-04 15:47 | 17.55648 | -83.56373 | 35012 ft | 482 kts | 20° |
| 2026-05-04 15:47 | 17.61837 | -83.53617 | 35004 ft | 482 kts | 20° |
| 2026-05-04 15:48 | 17.68014 | -83.50861 | 35012 ft | 483 kts | 20° |
| 2026-05-04 15:48 | 17.77289 | -83.46723 | 35006 ft | 483 kts | 20° |
| 2026-05-04 15:49 | 17.83477 | -83.43960 | 35003 ft | 482 kts | 20° |
| 2026-05-04 15:49 | 17.89656 | -83.41198 | 35012 ft | 482 kts | 20° |
| 2026-05-04 15:50 | 17.95801 | -83.38450 | 35007 ft | 482 kts | 20° |
| 2026-05-04 15:50 | 18.01972 | -83.35688 | 35012 ft | 482 kts | 20° |
| 2026-05-04 15:51 | 18.08148 | -83.32923 | 35017 ft | 482 kts | 20° |
| 2026-05-04 15:51 | 18.14318 | -83.30157 | 35023 ft | 482 kts | 20° |
| 2026-05-04 15:52 | 18.20447 | -83.27407 | 35016 ft | 482 kts | 20° |
| 2026-05-04 15:52 | 18.26626 | -83.24632 | 35020 ft | 482 kts | 20° |
| 2026-05-04 15:53 | 18.32809 | -83.21854 | 35022 ft | 483 kts | 20° |
| 2026-05-04 15:53 | 18.38993 | -83.19074 | 35019 ft | 483 kts | 20° |
| 2026-05-04 15:54 | 18.45146 | -83.16304 | 35018 ft | 483 kts | 20° |
| 2026-05-04 15:54 | 18.51337 | -83.13513 | 35018 ft | 484 kts | 20° |
| 2026-05-04 15:55 | 18.57532 | -83.10719 | 35016 ft | 484 kts | 20° |
| 2026-05-04 15:55 | 18.63727 | -83.07927 | 35027 ft | 484 kts | 20° |
| 2026-05-04 15:56 | 18.69930 | -83.05128 | 35028 ft | 484 kts | 19° |
| 2026-05-04 15:56 | 18.76124 | -83.02330 | 35030 ft | 485 kts | 20° |
| 2026-05-04 15:57 | 18.82322 | -82.99526 | 35026 ft | 485 kts | 19° |
| 2026-05-04 15:57 | 18.88485 | -82.96737 | 35027 ft | 484 kts | 19° |
| 2026-05-04 15:58 | 18.94682 | -82.93931 | 35029 ft | 484 kts | 19° |
| 2026-05-04 15:58 | 19.00872 | -82.91126 | 35025 ft | 484 kts | 19° |
| 2026-05-04 15:59 | 19.07062 | -82.88316 | 35028 ft | 484 kts | 19° |
| 2026-05-04 15:59 | 19.13253 | -82.85505 | 35017 ft | 484 kts | 19° |
| 2026-05-04 16:00 | 19.19459 | -82.82685 | 35018 ft | 485 kts | 19° |
| 2026-05-04 16:00 | 19.25655 | -82.79869 | 35016 ft | 484 kts | 19° |
| 2026-05-04 16:01 | 19.31821 | -82.77061 | 35018 ft | 485 kts | 19° |
| 2026-05-04 16:01 | 19.38024 | -82.74235 | 35027 ft | 485 kts | 19° |
| 2026-05-04 16:02 | 19.44227 | -82.71407 | 35027 ft | 485 kts | 19° |
| 2026-05-04 16:03 | 19.53542 | -82.67157 | 35027 ft | 487 kts | 19° |
| 2026-05-04 16:03 | 19.59764 | -82.64314 | 35028 ft | 487 kts | 19° |
| 2026-05-04 16:04 | 19.65992 | -82.61466 | 35028 ft | 488 kts | 19° |
| 2026-05-04 16:04 | 19.75306 | -82.57203 | 35028 ft | 488 kts | 19° |
| 2026-05-04 16:05 | 19.80534 | -82.54807 | 35025 ft | 488 kts | 19° |
| 2026-05-04 16:06 | 19.89848 | -82.50534 | 35030 ft | 488 kts | 19° |
| 2026-05-04 16:07 | 20.02343 | -82.44794 | 35026 ft | 489 kts | 19° |
| 2026-05-04 16:08 | 20.14945 | -82.39595 | 35038 ft | 483 kts | 10° |
| 2026-05-04 16:09 | 20.31214 | -82.34992 | 35019 ft | 485 kts | 11° |
| 2026-05-04 16:10 | 20.44203 | -82.31064 | 35028 ft | 485 kts | 11° |
| 2026-05-04 16:11 | 20.57156 | -82.27210 | 35040 ft | 484 kts | 11° |
| 2026-05-04 16:12 | 20.76670 | -82.21447 | 35035 ft | 485 kts | 10° |
| 2026-05-04 16:13 | 20.89660 | -82.17592 | 35037 ft | 486 kts | 10° |
| 2026-05-04 16:14 | 21.02698 | -82.13720 | 35037 ft | 487 kts | 10° |
| 2026-05-04 16:16 | 21.19025 | -82.08859 | 35042 ft | 488 kts | 10° |
| 2026-05-04 16:17 | 21.35341 | -82.03988 | 35043 ft | 488 kts | 9° |
| 2026-05-04 16:18 | 21.48418 | -82.00078 | 35049 ft | 488 kts | 9° |
| 2026-05-04 16:19 | 21.64787 | -81.95172 | 35047 ft | 489 kts | 9° |
| 2026-05-04 16:20 | 21.81194 | -81.90243 | 35045 ft | 490 kts | 9° |
| 2026-05-04 16:22 | 21.97606 | -81.85301 | 35048 ft | 491 kts | 9° |
| 2026-05-04 16:23 | 22.17357 | -81.79336 | 35045 ft | 491 kts | 9° |
| 2026-05-04 16:25 | 22.37073 | -81.73367 | 35045 ft | 490 kts | 9° |
| 2026-05-04 16:26 | 22.59992 | -81.66405 | 35045 ft | 490 kts | 9° |
| 2026-05-04 16:28 | 22.76404 | -81.61404 | 35048 ft | 491 kts | 9° |
| 2026-05-04 16:29 | 22.99455 | -81.54362 | 35049 ft | 492 kts | 9° |
| 2026-05-04 16:31 | 23.15887 | -81.49323 | 35047 ft | 492 kts | 9° |
| 2026-05-04 16:32 | 23.35690 | -81.43236 | 35047 ft | 492 kts | 9° |
| 2026-05-04 16:33 | 23.48853 | -81.39180 | 35045 ft | 492 kts | 9° |
| 2026-05-04 16:34 | 23.58736 | -81.36129 | 35044 ft | 492 kts | 9° |
| 2026-05-04 16:35 | 23.78521 | -81.30003 | 35055 ft | 493 kts | 9° |
| 2026-05-04 16:36 | 23.88383 | -81.26945 | 35054 ft | 493 kts | 9° |
| 2026-05-04 16:37 | 23.98280 | -81.23869 | 35057 ft | 493 kts | 9° |
| 2026-05-04 16:38 | 24.11609 | -81.21499 | 35055 ft | 482 kts | 358° |
| 2026-05-04 16:39 | 24.21666 | -81.20234 | 34111 ft | 488 kts | 0° |
| 2026-05-04 16:39 | 24.28392 | -81.19268 | 32738 ft | 487 kts | 1° |
| 2026-05-04 16:40 | 24.35109 | -81.18286 | 31284 ft | 486 kts | 1° |
| 2026-05-04 16:40 | 24.41684 | -81.17327 | 30236 ft | 474 kts | 0° |
| 2026-05-04 16:41 | 24.48146 | -81.16394 | 29174 ft | 462 kts | 0° |
| 2026-05-04 16:41 | 24.57551 | -81.15036 | 27573 ft | 446 kts | 1° |
| 2026-05-04 16:42 | 24.66644 | -81.13963 | 26001 ft | 430 kts | 359° |
| 2026-05-04 16:43 | 24.72542 | -81.13368 | 24974 ft | 422 kts | 359° |
| 2026-05-04 16:43 | 24.78336 | -81.12756 | 23948 ft | 414 kts | 359° |
| 2026-05-04 16:43 | 24.81193 | -81.12449 | 23448 ft | 411 kts | 359° |
| 2026-05-04 16:44 | 24.91884 | -81.09363 | 21931 ft | 406 kts | 19° |
| 2026-05-04 16:45 | 24.97010 | -81.06739 | 20940 ft | 404 kts | 19° |
| 2026-05-04 16:46 | 25.04546 | -81.02964 | 18787 ft | 393 kts | 19° |
| 2026-05-04 16:46 | 25.09509 | -81.00511 | 17319 ft | 387 kts | 19° |
| 2026-05-04 16:47 | 25.14365 | -80.98109 | 15992 ft | 377 kts | 19° |
| 2026-05-04 16:47 | 25.19095 | -80.95768 | 14734 ft | 368 kts | 20° |
| 2026-05-04 16:48 | 25.26044 | -80.92328 | 13422 ft | 362 kts | 20° |
| 2026-05-04 16:48 | 25.28301 | -80.91209 | 13006 ft | 359 kts | 20° |
| 2026-05-04 16:49 | 25.32833 | -80.88961 | 12177 ft | 354 kts | 20° |
| 2026-05-04 16:49 | 25.37299 | -80.86742 | 11492 ft | 346 kts | 21° |
| 2026-05-04 16:50 | 25.41576 | -80.84691 | 11180 ft | 325 kts | 19° |
| 2026-05-04 16:50 | 25.45643 | -80.82834 | 10809 ft | 310 kts | 17° |
| 2026-05-04 16:51 | 25.49042 | -80.81572 | 10238 ft | 308 kts | 15° |
| 2026-05-04 16:51 | 25.51084 | -80.80829 | 9907 ft | 307 kts | 15° |
| 2026-05-04 16:51 | 25.55060 | -80.79347 | 9280 ft | 304 kts | 16° |
| 2026-05-04 16:52 | 25.59080 | -80.77846 | 8501 ft | 306 kts | 17° |
| 2026-05-04 16:52 | 25.61061 | -80.77040 | 8127 ft | 300 kts | 18° |
| 2026-05-04 16:53 | 25.64830 | -80.75325 | 7402 ft | 290 kts | 39° |
| 2026-05-04 16:53 | 25.68468 | -80.70217 | 6480 ft | 279 kts | 52° |
| 2026-05-04 16:54 | 25.69630 | -80.68495 | 6161 ft | 278 kts | 52° |
| 2026-05-04 16:55 | 25.74306 | -80.61629 | 4872 ft | 278 kts | 52° |
| 2026-05-04 16:55 | 25.76640 | -80.58215 | 4230 ft | 277 kts | 52° |
| 2026-05-04 16:56 | 25.77767 | -80.54297 | 3704 ft | 266 kts | 88° |
| 2026-05-04 16:56 | 25.77924 | -80.48458 | 3041 ft | 242 kts | 86° |
| 2026-05-04 16:57 | 25.78000 | -80.46599 | 2758 ft | 239 kts | 85° |
| 2026-05-04 16:57 | 25.78144 | -80.42985 | 2120 ft | 224 kts | 85° |
| 2026-05-04 16:58 | 25.78330 | -80.38333 | 1327 ft | 177 kts | 85° |
| 2026-05-04 16:58 | 25.78383 | -80.37022 | 1078 ft | 162 kts | 85° |
| 2026-05-04 16:59 | 25.78477 | -80.34689 | 660 ft | 146 kts | 85° |
| 2026-05-04 17:00 | 25.78666 | -80.30190 | 15 ft | 132 kts | 88° |
| 2026-05-04 17:00 | 25.78717 | -80.28932 | 13 ft | 23 kts | 85° |
| 2026-05-04 17:01 | 25.78851 | -80.28683 | 15 ft | 15 kts | 5° |
| 2026-05-04 17:01 | 25.79020 | -80.28690 | 15 ft | 0 kts | 357° |
| 2026-05-04 17:02 | 25.79142 | -80.28696 | 13 ft | 18 kts | 357° |
| 2026-05-04 17:03 | 25.79265 | -80.28702 | 13 ft | 18 kts | 358° |
| 2026-05-04 17:03 | 25.79377 | -80.28732 | 15 ft | 17 kts | 310° |
| 2026-05-04 17:03 | 25.79562 | -80.28769 | 15 ft | 16 kts | 66° |
| 2026-05-04 17:04 | 25.79615 | -80.28545 | 14 ft | 14 kts | 72° |
| 2026-05-04 17:04 | 25.79718 | -80.28449 | 14 ft | 5 kts | 357° |
| 2026-05-04 17:05 | 25.79729 | -80.28449 | 14 ft | 0 kts | 357° |
| 2026-05-04 17:05 | 25.79730 | -80.28449 | 15 ft | 0 kts | 357° |